createdAt,value
2024-03-04T00:00:41.452Z,99677.09
2024-03-04T00:03:26.934Z,99674.22
2024-03-04T00:06:11.953Z,99669.41
2024-03-04T00:08:56.733Z,99686.56
2024-03-04T00:11:41.722Z,99689.06
2024-03-04T00:14:26.612Z,99685.91
2024-03-04T00:17:11.528Z,99699.69
2024-03-04T00:19:56.421Z,99715.06
2024-03-04T00:22:41.484Z,99729.31
2024-03-04T00:25:26.241Z,99726.81
2024-03-04T00:28:11.181Z,99723.41
2024-03-04T00:30:56.126Z,99729.31
2024-03-04T00:33:41.051Z,99721.34
2024-03-04T00:36:26.526Z,99722.84
2024-03-04T00:39:11.644Z,99725.25
2024-03-04T00:41:56.587Z,99724.34
2024-03-04T00:44:41.369Z,99728.63
2024-03-04T00:47:27.134Z,99735.31
2024-03-04T00:50:12.305Z,99735.97
2024-03-04T00:52:57.502Z,99742.41
2024-03-04T00:55:42.766Z,99748.34
2024-03-04T00:58:27.661Z,99741.44
2024-03-04T01:01:12.647Z,99746.84
2024-03-04T01:03:57.845Z,99750.38
2024-03-04T01:06:42.841Z,99750.84
2024-03-04T01:09:27.723Z,99753.91
2024-03-04T01:12:12.550Z,99758.53
2024-03-04T01:14:57.506Z,99756.72
2024-03-04T01:17:42.323Z,99763.50
2024-03-04T01:20:27.288Z,99765.75
2024-03-04T01:23:12.309Z,99769.66
2024-03-04T01:25:57.563Z,99769.84
2024-03-04T01:28:42.380Z,99779.81
2024-03-04T01:31:27.259Z,99779.03
2024-03-04T01:34:12.121Z,99785.06
2024-03-04T01:36:57.125Z,99773.63
2024-03-04T01:39:42.331Z,99780.44
2024-03-04T01:42:27.338Z,99783.63
2024-03-04T01:45:23.207Z,99790.41
2024-03-04T01:48:09.017Z,99791.91
2024-03-04T01:50:55.266Z,99798.38
2024-03-04T01:53:40.414Z,99816.06
2024-03-04T01:56:25.681Z,99816.97
2024-03-04T01:59:10.745Z,99819.25
2024-03-04T02:01:55.721Z,99825.78
2024-03-04T02:04:42.231Z,99822.34
2024-03-04T02:07:27.433Z,99839.41
2024-03-04T02:10:13.768Z,99837.81
2024-03-04T02:12:59.473Z,99839.47
2024-03-04T02:15:44.695Z,99842.41
2024-03-04T02:18:29.912Z,99840.44
2024-03-04T02:21:17.082Z,99852.88
2024-03-04T02:24:02.204Z,99852.97
2024-03-04T02:26:47.554Z,99861.00
2024-03-04T02:29:32.452Z,99878.19
2024-03-04T02:32:17.793Z,99886.31
2024-03-04T02:35:03.655Z,99887.91
2024-03-04T02:37:48.934Z,99888.16
2024-03-04T02:40:33.811Z,99890.84
2024-03-04T02:43:19.330Z,99897.81
2024-03-04T02:46:04.932Z,99896.19
2024-03-04T02:48:50.153Z,99901.44
2024-03-04T02:51:35.253Z,99908.53
2024-03-04T02:54:20.557Z,99910.88
2024-03-04T02:57:05.673Z,99905.00
2024-03-04T02:59:50.661Z,99912.94
2024-03-04T03:02:35.579Z,99918.06
2024-03-04T03:05:20.364Z,99909.81
2024-03-04T03:08:06.099Z,99905.66
2024-03-04T03:10:51.385Z,99908.41
2024-03-04T03:13:36.691Z,99905.00
2024-03-04T03:16:23.145Z,99913.72
2024-03-04T03:19:08.077Z,99919.28
2024-03-04T03:21:53.672Z,99914.72
2024-03-04T03:24:38.973Z,99916.38
2024-03-04T03:27:23.860Z,99909.13
2024-03-04T03:30:09.276Z,99919.22
2024-03-04T03:32:54.535Z,99930.44
2024-03-04T03:35:40.060Z,99939.97
2024-03-04T03:38:24.906Z,99949.47
2024-03-04T03:41:10.037Z,99941.69
2024-03-04T03:43:54.882Z,99936.06
2024-03-04T03:46:39.832Z,99939.66
2024-03-04T03:49:24.769Z,99944.88
2024-03-04T03:52:09.643Z,99945.84
2024-03-04T03:54:54.791Z,99958.69
2024-03-04T03:57:51.242Z,99969.47
2024-03-04T04:00:43.267Z,99965.91
2024-03-04T04:03:28.611Z,99965.28
2024-03-04T04:06:13.458Z,99979.94
2024-03-04T04:08:58.435Z,99991.97
2024-03-04T04:11:44.061Z,100002.19
2024-03-04T04:14:29.274Z,100010.44
2024-03-04T04:17:14.042Z,100022.84
2024-03-04T04:19:59.037Z,100029.50
2024-03-04T04:22:44.101Z,100038.59
2024-03-04T04:25:28.864Z,100041.56
2024-03-04T04:28:13.812Z,100041.06
2024-03-04T04:30:59.205Z,100048.91
2024-03-04T04:33:44.604Z,100052.31
2024-03-04T04:36:29.404Z,100044.06
2024-03-04T04:39:14.306Z,100053.38
2024-03-04T04:41:59.283Z,100053.38
2024-03-04T04:44:44.088Z,100060.19
2024-03-04T04:47:29.016Z,100063.50
2024-03-04T04:50:13.882Z,100068.56
2024-03-04T04:52:59.189Z,100088.03
2024-03-04T04:55:44.269Z,100094.66
2024-03-04T04:58:29.649Z,100092.81
2024-03-04T05:01:28.256Z,100099.38
2024-03-04T05:04:31.752Z,100096.25
2024-03-04T05:07:18.765Z,100097.06
2024-03-04T05:10:05.057Z,100105.06
2024-03-04T05:12:50.517Z,100113.56
2024-03-04T05:15:35.337Z,100112.94
2024-03-04T05:18:20.157Z,100118.97
2024-03-04T05:21:05.717Z,100123.91
2024-03-04T05:23:50.669Z,100131.88
2024-03-04T05:26:35.746Z,100134.66
2024-03-04T05:29:20.502Z,100138.41
2024-03-04T05:32:05.904Z,100141.22
2024-03-04T05:34:50.785Z,100133.66
2024-03-04T05:37:35.628Z,100139.75
2024-03-04T05:40:23.867Z,100157.94
2024-03-04T05:43:08.817Z,100159.63
2024-03-04T05:45:53.744Z,100159.09
2024-03-04T05:48:38.642Z,100169.44
2024-03-04T05:51:23.504Z,100163.69
2024-03-04T05:54:11.914Z,100169.56
2024-03-04T05:56:56.791Z,100173.31
2024-03-04T05:59:42.184Z,100170.63
2024-03-04T06:02:27.140Z,100176.22
2024-03-04T06:05:13.016Z,100178.44
2024-03-04T06:07:58.128Z,100183.59
2024-03-04T06:10:42.974Z,100178.94
2024-03-04T06:13:27.880Z,100189.13
2024-03-04T06:16:12.782Z,100198.53
2024-03-04T06:18:57.787Z,100194.03
2024-03-04T06:21:45.193Z,100199.34
2024-03-04T06:24:31.276Z,100204.78
2024-03-04T06:27:16.152Z,100208.22
2024-03-04T06:30:02.179Z,100211.31
2024-03-04T06:32:47.175Z,100220.59
2024-03-04T06:35:32.045Z,100224.78
2024-03-04T06:38:16.822Z,100219.34
2024-03-04T06:41:03.307Z,100236.09
2024-03-04T06:43:48.243Z,100233.72
2024-03-04T06:46:33.157Z,100230.88
2024-03-04T06:49:18.594Z,100235.94
2024-03-04T06:52:03.534Z,100236.91
2024-03-04T06:54:51.538Z,100237.19
2024-03-04T06:57:36.398Z,100242.63
2024-03-04T07:00:21.477Z,100235.53
2024-03-04T07:03:06.675Z,100249.13
2024-03-04T07:05:51.609Z,100259.13
2024-03-04T07:08:36.627Z,100275.41
2024-03-04T07:11:21.537Z,100264.84
2024-03-04T07:14:06.393Z,100269.31
2024-03-04T07:16:51.246Z,100267.78
2024-03-04T07:19:36.157Z,100261.09
2024-03-04T07:22:21.025Z,100271.66
2024-03-04T07:25:07.026Z,100274.09
2024-03-04T07:27:52.093Z,100271.75
2024-03-04T07:30:37.040Z,100274.09
2024-03-04T07:33:21.926Z,100279.94
2024-03-04T07:36:07.091Z,100283.88
2024-03-04T07:38:52.290Z,100288.28
2024-03-04T07:41:37.224Z,100291.31
2024-03-04T07:44:22.234Z,100293.25
2024-03-04T07:47:07.328Z,100294.97
2024-03-04T07:49:52.320Z,100294.31
2024-03-04T07:52:37.265Z,100295.84
2024-03-04T07:55:23.822Z,100301.66
2024-03-04T07:58:08.969Z,100297.16
2024-03-04T08:00:54.803Z,100301.97
2024-03-04T08:03:39.872Z,100308.34
2024-03-04T08:06:24.925Z,100308.06
2024-03-04T08:09:10.100Z,100311.00
2024-03-04T08:11:55.284Z,100310.34
2024-03-04T08:14:40.184Z,100307.13
2024-03-04T08:17:26.526Z,100310.13
2024-03-04T08:20:17.559Z,100317.13
2024-03-04T08:23:10.356Z,100318.97
2024-03-04T08:25:55.371Z,100325.31
2024-03-04T08:28:41.069Z,100328.00
2024-03-04T08:31:26.133Z,100321.13
2024-03-04T08:34:11.085Z,100322.31
2024-03-04T08:36:56.426Z,100335.25
2024-03-04T08:39:41.269Z,100337.03
2024-03-04T08:42:26.234Z,100333.53
2024-03-04T08:45:11.442Z,100333.13
2024-03-04T08:47:56.857Z,100335.03
2024-03-04T08:50:41.793Z,100330.88
2024-03-04T08:53:26.686Z,100326.06
2024-03-04T08:56:11.498Z,100330.38
2024-03-04T08:58:58.425Z,100332.22
2024-03-04T09:01:43.575Z,100330.47
2024-03-04T09:04:28.529Z,100325.50
2024-03-04T09:07:13.527Z,100328.25
2024-03-04T09:09:58.543Z,100324.25
2024-03-04T09:12:44.637Z,100323.66
2024-03-04T09:15:29.652Z,100330.69
2024-03-04T09:18:14.534Z,100332.06
2024-03-04T09:20:59.379Z,100333.34
2024-03-04T09:23:44.295Z,100322.44
2024-03-04T09:26:29.211Z,100327.59
2024-03-04T09:29:14.276Z,100336.19
2024-03-04T09:31:59.095Z,100336.91
2024-03-04T09:34:44.050Z,100329.44
2024-03-04T09:37:28.892Z,100325.06
2024-03-04T09:40:14.033Z,100334.75
2024-03-04T09:42:59.093Z,100327.88
2024-03-04T09:45:44.711Z,100335.88
2024-03-04T09:48:30.364Z,100328.06
2024-03-04T09:51:16.184Z,100322.22
2024-03-04T09:54:01.592Z,100320.78
2024-03-04T09:56:46.963Z,100322.19
2024-03-04T09:59:32.871Z,100326.59
2024-03-04T10:02:18.388Z,100329.13
2024-03-04T10:05:03.643Z,100328.44
2024-03-04T10:07:48.734Z,100337.31
2024-03-04T10:10:34.229Z,100331.94
2024-03-04T10:13:19.232Z,100336.16
2024-03-04T10:16:06.803Z,100336.34
2024-03-04T10:19:02.465Z,100341.19
2024-03-04T10:21:48.813Z,100335.13
2024-03-04T10:24:33.907Z,100338.88
2024-03-04T10:27:19.045Z,100334.31
2024-03-04T10:30:12.460Z,100338.56
2024-03-04T10:33:00.036Z,100340.56
2024-03-04T10:35:45.200Z,100342.25
2024-03-04T10:38:30.116Z,100336.59
2024-03-04T10:41:19.415Z,100340.13
2024-03-04T10:44:04.792Z,100336.84
2024-03-04T10:46:53.592Z,100337.56
2024-03-04T10:49:39.597Z,100333.28
2024-03-04T10:52:24.952Z,100342.03
2024-03-04T10:55:10.521Z,100345.38
2024-03-04T10:58:01.366Z,100345.91
2024-03-04T11:00:46.805Z,100350.34
2024-03-04T11:03:33.767Z,100348.69
2024-03-04T11:06:24.394Z,100356.03
2024-03-04T11:09:11.384Z,100359.41
2024-03-04T11:12:01.848Z,100356.16
2024-03-04T11:14:55.233Z,100352.28
2024-03-04T11:17:47.252Z,100353.25
2024-03-04T11:20:33.166Z,100350.69
2024-03-04T11:23:18.892Z,100352.63
2024-03-04T11:26:04.471Z,100349.28
2024-03-04T11:28:51.342Z,100343.16
2024-03-04T11:31:37.102Z,100340.13
2024-03-04T11:34:22.221Z,100342.00
2024-03-04T11:37:07.298Z,100339.81
2024-03-04T11:39:54.512Z,100342.75
2024-03-04T11:42:41.177Z,100335.97
2024-03-04T11:45:34.051Z,100329.09
2024-03-04T11:48:28.843Z,100318.53
2024-03-04T11:51:13.973Z,100318.63
2024-03-04T11:53:59.316Z,100311.66
2024-03-04T11:56:44.794Z,100314.41
2024-03-04T11:59:30.505Z,100306.34
2024-03-04T12:02:15.743Z,100312.16
2024-03-04T12:05:01.617Z,100315.69
2024-03-04T12:07:47.364Z,100315.44
2024-03-04T12:10:34.480Z,100320.22
2024-03-04T12:13:20.393Z,100331.66
2024-03-04T12:16:06.007Z,100342.25
2024-03-04T12:18:50.986Z,100338.03
2024-03-04T12:21:37.254Z,100347.97
2024-03-04T12:24:22.883Z,100359.06
2024-03-04T12:27:07.710Z,100356.53
2024-03-04T12:29:52.768Z,100363.78
2024-03-04T12:32:38.480Z,100371.25
2024-03-04T12:35:25.884Z,100377.41
2024-03-04T12:38:10.724Z,100376.81
2024-03-04T12:40:55.637Z,100381.56
2024-03-04T12:43:40.549Z,100395.53
2024-03-04T12:46:26.032Z,100407.28
2024-03-04T12:49:11.269Z,100400.94
2024-03-04T12:51:56.346Z,100404.09
2024-03-04T12:54:41.513Z,100397.41
2024-03-04T12:57:26.574Z,100392.50
2024-03-04T13:00:13.027Z,100395.25
2024-03-04T13:02:57.885Z,100401.25
2024-03-04T13:05:42.704Z,100407.47
2024-03-04T13:08:27.668Z,100400.69
2024-03-04T13:11:12.622Z,100398.19
2024-03-04T13:13:57.688Z,100397.03
2024-03-04T13:16:42.623Z,100392.91
2024-03-04T13:19:27.723Z,100398.56
2024-03-04T13:22:13.125Z,100388.06
2024-03-04T13:24:58.051Z,100398.53
2024-03-04T13:27:43.644Z,100385.25
2024-03-04T13:30:29.216Z,100391.66
2024-03-04T13:33:14.485Z,100396.09
2024-03-04T13:36:00.446Z,100406.84
2024-03-04T13:38:45.654Z,100410.25
2024-03-04T13:41:30.573Z,100414.69
2024-03-04T13:44:15.503Z,100422.13
2024-03-04T13:47:01.251Z,100421.19
2024-03-04T13:49:46.575Z,100418.44
2024-03-04T13:52:32.100Z,100414.25
2024-03-04T13:55:17.325Z,100419.47
2024-03-04T13:58:03.016Z,100417.59
2024-03-04T14:00:48.379Z,100410.81
2024-03-04T14:03:33.453Z,100409.19
2024-03-04T14:06:18.556Z,100404.09
2024-03-04T14:09:03.885Z,100405.31
2024-03-04T14:11:50.051Z,100397.72
2024-03-04T14:14:35.041Z,100402.94
2024-03-04T14:17:19.834Z,100398.81
2024-03-04T14:20:05.931Z,100397.22
2024-03-04T14:22:51.085Z,100397.31
2024-03-04T14:25:36.639Z,100397.94
2024-03-04T14:28:21.496Z,100384.47
2024-03-04T14:31:06.445Z,100387.00
2024-03-04T14:33:51.306Z,100387.13
2024-03-04T14:36:36.259Z,100386.31
2024-03-04T14:39:21.365Z,100386.50
2024-03-04T14:42:06.194Z,100372.66
2024-03-04T14:44:51.196Z,100371.66
2024-03-04T14:47:36.123Z,100383.94
2024-03-04T14:50:21.107Z,100374.09
2024-03-04T14:53:06.039Z,100366.38
2024-03-04T14:55:51.126Z,100372.59
2024-03-04T14:58:36.070Z,100376.25
2024-03-04T15:01:20.994Z,100381.25
2024-03-04T15:04:06.554Z,100380.56
2024-03-04T15:06:51.783Z,100382.22
2024-03-04T15:09:37.115Z,100379.66
2024-03-04T15:12:22.561Z,100385.00
2024-03-04T15:15:12.180Z,100386.78
2024-03-04T15:18:10.219Z,100391.41
2024-03-04T15:21:04.446Z,100392.44
2024-03-04T15:23:49.232Z,100394.16
2024-03-04T15:26:34.142Z,100389.69
2024-03-04T15:29:20.525Z,100392.22
2024-03-04T15:32:05.701Z,100393.66
2024-03-04T15:34:51.172Z,100397.31
2024-03-04T15:37:36.703Z,100400.59
2024-03-04T15:40:21.700Z,100398.75
2024-03-04T15:43:06.489Z,100410.22
2024-03-04T15:45:51.903Z,100414.41
2024-03-04T15:48:37.557Z,100418.00
2024-03-04T15:51:22.814Z,100416.28
2024-03-04T15:54:07.769Z,100420.75
2024-03-04T15:56:52.699Z,100422.47
2024-03-04T15:59:37.951Z,100412.84
2024-03-04T16:02:23.151Z,100420.66
2024-03-04T16:05:12.222Z,100417.31
2024-03-04T16:07:57.113Z,100415.59
2024-03-04T16:10:42.706Z,100415.66
2024-03-04T16:13:28.071Z,100413.94
2024-03-04T16:16:13.019Z,100406.19
2024-03-04T16:18:57.904Z,100410.84
2024-03-04T16:21:43.172Z,100413.59
2024-03-04T16:24:28.501Z,100418.97
2024-03-04T16:27:13.280Z,100422.31
2024-03-04T16:29:58.283Z,100420.66
2024-03-04T16:32:43.225Z,100423.19
2024-03-04T16:35:28.164Z,100418.66
2024-03-04T16:38:14.133Z,100424.72
2024-03-04T16:40:59.484Z,100430.78
2024-03-04T16:43:44.537Z,100438.19
2024-03-04T16:46:29.442Z,100433.13
2024-03-04T16:49:14.557Z,100440.13
2024-03-04T16:51:59.745Z,100436.63
2024-03-04T16:54:44.710Z,100439.44
2024-03-04T16:57:30.043Z,100446.09
2024-03-04T17:00:15.660Z,100447.94
2024-03-04T17:03:02.685Z,100444.38
2024-03-04T17:05:47.620Z,100451.25
2024-03-04T17:08:32.547Z,100446.09
2024-03-04T17:11:17.576Z,100448.66
2024-03-04T17:14:02.519Z,100453.19
2024-03-04T17:16:47.634Z,100448.09
2024-03-04T17:19:32.427Z,100456.59
2024-03-04T17:22:17.396Z,100454.88
2024-03-04T17:25:02.393Z,100455.84
2024-03-04T17:27:47.252Z,100460.81
2024-03-04T17:30:32.242Z,100464.44
2024-03-04T17:33:17.286Z,100470.56
2024-03-04T17:36:02.086Z,100470.50
2024-03-04T17:38:47.082Z,100469.53
2024-03-04T17:41:32.051Z,100471.25
2024-03-04T17:44:16.865Z,100479.59
2024-03-04T17:47:01.803Z,100480.34
2024-03-04T17:49:47.792Z,100481.38
2024-03-04T17:52:33.252Z,100480.47
2024-03-04T17:55:18.668Z,100483.22
2024-03-04T17:58:03.889Z,100483.91
2024-03-04T18:00:49.029Z,100489.06
2024-03-04T18:03:33.933Z,100494.34
2024-03-04T18:06:18.761Z,100499.44
2024-03-04T18:09:03.999Z,100495.25
2024-03-04T18:11:49.034Z,100494.34
2024-03-04T18:14:33.915Z,100488.19
2024-03-04T18:17:18.890Z,100493.56
2024-03-04T18:20:04.026Z,100499.31
2024-03-04T18:22:49.474Z,100503.72
2024-03-04T18:25:34.764Z,100500.97
2024-03-04T18:28:19.969Z,100496.25
2024-03-04T18:31:04.905Z,100500.78
2024-03-04T18:33:49.854Z,100500.13
2024-03-04T18:36:34.875Z,100506.00
2024-03-04T18:39:19.713Z,100506.66
2024-03-04T18:42:04.822Z,100504.22
2024-03-04T18:44:49.982Z,100511.72
2024-03-04T18:47:34.944Z,100512.81
2024-03-04T18:50:19.874Z,100515.09
2024-03-04T18:53:04.865Z,100517.81
2024-03-04T18:55:49.993Z,100522.31
2024-03-04T18:58:39.287Z,100524.84
2024-03-04T19:01:25.282Z,100524.78
2024-03-04T19:04:10.314Z,100522.25
2024-03-04T19:06:55.803Z,100527.59
2024-03-04T19:09:40.627Z,100527.34
2024-03-04T19:12:25.414Z,100528.22
2024-03-04T19:15:10.724Z,100532.97
2024-03-04T19:17:55.791Z,100537.38
2024-03-04T19:20:41.867Z,100533.84
2024-03-04T19:23:27.166Z,100537.50
2024-03-04T19:26:19.261Z,100546.03
2024-03-04T19:29:04.305Z,100539.53
2024-03-04T19:31:49.458Z,100541.81
2024-03-04T19:34:34.780Z,100545.25
2024-03-04T19:37:19.633Z,100537.50
2024-03-04T19:40:05.841Z,100536.31
2024-03-04T19:42:50.962Z,100535.72
2024-03-04T19:45:35.916Z,100540.75
2024-03-04T19:48:20.658Z,100532.34
2024-03-04T19:51:05.589Z,100534.13
2024-03-04T19:53:51.493Z,100532.31
2024-03-04T19:56:36.507Z,100541.00
2024-03-04T19:59:21.767Z,100535.78
2024-03-04T20:02:06.974Z,100541.63
2024-03-04T20:04:52.518Z,100542.03
2024-03-04T20:07:37.865Z,100554.22
2024-03-04T20:10:22.690Z,100541.34
2024-03-04T20:13:07.552Z,100550.34
2024-03-04T20:15:53.216Z,100547.72
2024-03-04T20:18:38.282Z,100545.41
2024-03-04T20:21:23.814Z,100548.59
2024-03-04T20:24:08.805Z,100550.84
2024-03-04T20:26:53.588Z,100550.78
2024-03-04T20:29:38.570Z,100560.06
2024-03-04T20:32:23.959Z,100550.63
2024-03-04T20:35:09.446Z,100555.09
2024-03-04T20:37:54.380Z,100566.25
2024-03-04T20:40:43.612Z,100563.78
2024-03-04T20:43:29.066Z,100567.38
2024-03-04T20:46:14.543Z,100573.75
2024-03-04T20:48:59.341Z,100577.78
2024-03-04T20:51:44.304Z,100581.28
2024-03-04T20:54:29.187Z,100571.09
2024-03-04T20:57:14.232Z,100575.31
2024-03-04T20:59:59.057Z,100577.13
2024-03-04T21:02:45.785Z,100576.34
2024-03-04T21:05:31.189Z,100581.50
2024-03-04T21:08:16.023Z,100574.59
2024-03-04T21:11:01.112Z,100581.63
2024-03-04T21:13:46.344Z,100582.78
2024-03-04T21:16:31.306Z,100585.44
2024-03-04T21:19:16.216Z,100582.78
2024-03-04T21:22:01.128Z,100579.13
2024-03-04T21:24:46.493Z,100581.06
2024-03-04T21:27:32.154Z,100568.03
2024-03-04T21:30:17.331Z,100573.59
2024-03-04T21:33:02.302Z,100577.88
2024-03-04T21:35:47.421Z,100580.19
2024-03-04T21:38:32.209Z,100579.53
2024-03-04T21:41:17.086Z,100579.66
2024-03-04T21:44:02.221Z,100574.50
2024-03-04T21:46:47.560Z,100573.59
2024-03-04T21:49:32.799Z,100577.16
2024-03-04T21:52:17.572Z,100574.38
2024-03-04T21:55:02.820Z,100566.28
2024-03-04T21:57:48.003Z,100562.22
2024-03-04T22:00:32.942Z,100568.03
2024-03-04T22:03:17.807Z,100570.59
2024-03-04T22:06:02.869Z,100571.59
2024-03-04T22:08:48.782Z,100564.59
2024-03-04T22:11:45.259Z,100565.09
2024-03-04T22:14:31.617Z,100577.00
2024-03-04T22:17:16.552Z,100583.22
2024-03-04T22:20:01.477Z,100581.72
2024-03-04T22:22:46.352Z,100581.84
2024-03-04T22:25:31.239Z,100585.41
2024-03-04T22:28:16.535Z,100585.50
2024-03-04T22:31:01.728Z,100582.91
2024-03-04T22:33:46.929Z,100588.16
2024-03-04T22:36:31.907Z,100582.34
2024-03-04T22:39:16.904Z,100589.38
2024-03-04T22:42:01.834Z,100588.41
2024-03-04T22:44:46.816Z,100580.84
2024-03-04T22:47:31.716Z,100576.34
2024-03-04T22:50:17.685Z,100561.56
2024-03-04T22:53:02.662Z,100572.13
2024-03-04T22:55:48.040Z,100577.91
2024-03-04T22:58:32.989Z,100581.59
2024-03-04T23:01:17.895Z,100579.47
2024-03-04T23:04:03.341Z,100589.00
2024-03-04T23:06:48.170Z,100589.66
2024-03-04T23:09:33.123Z,100582.47
2024-03-04T23:12:17.931Z,100589.91
2024-03-04T23:15:03.157Z,100588.97
2024-03-04T23:17:48.496Z,100593.25
2024-03-04T23:20:33.345Z,100597.59
2024-03-04T23:23:18.231Z,100599.56
2024-03-04T23:26:03.358Z,100605.59
2024-03-04T23:28:49.018Z,100603.38
2024-03-04T23:31:34.486Z,100603.66
2024-03-04T23:34:19.632Z,100607.44
2024-03-04T23:37:04.580Z,100596.53
2024-03-04T23:39:49.621Z,100602.03
2024-03-04T23:42:34.494Z,100600.53
2024-03-04T23:45:19.327Z,100600.66
2024-03-04T23:48:04.557Z,100593.56
2024-03-04T23:50:49.557Z,100597.16
2024-03-04T23:53:34.522Z,100599.97
2024-03-04T23:56:19.530Z,100591.22
2024-03-04T23:59:04.372Z,100586.06
